• Join FlightAware (Why Join?)
  • Login
  • US Flag 
11:43PM EST


 

Airport Tracker/Info


-or-


 

Live Flight TrackerFlight Track Log ✈ DAL95 ✈ 17-Apr-2013 ✈ LEBL / BCN - KJFK

Flight Track Log - Related Links

Times and Time Zones

All times are in EDT time to prevent confusion due to time zone crossing. See the DAL95 flight status page for this flight to view local times or setup timezone preferences in your user account.

Time Position Orientation Groundspeed Altitude Reporting Facility
EDT Latitude Longitude Course Direction KTS MPH feet Rate Location/Type
04:30AM 41.2770 2.0620 242° Southwest 158 182 600  Level FlightAware
04:30AM 41.2710 2.0520 231° Southwest 158 182 1,100 1,980 Climbing FlightAware
04:31AM 41.2600 2.0480 195° South 163 188 1,600 1,800 Climbing FlightAware
04:31AM 41.2410 2.0520 171° South 159 183 2,300 1,620 Climbing FlightAware
04:32AM 41.2210 2.0390 206° Southwest 165 190 3,100 1,200 Climbing FlightAware
04:32AM 41.2030 2.0250 210° Southwest 197 227 3,400 840 Climbing FlightAware
04:32AM 41.1800 1.9990 220° Southwest 244 281 3,900 900 Climbing FlightAware
04:33AM 41.1780 1.9850 259° West 262 302 4,000 2,100 Climbing FlightAware
04:33AM 41.1870 1.9340 283° West 276 318 5,300 2,580 Climbing FlightAware
04:34AM 41.2090 1.8950 307° West 279 321 6,600 3,000 Climbing FlightAware
04:34AM 41.2310 1.8510 304° West 271 312 8,300 2,820 Climbing FlightAware
04:35AM 41.2420 1.8100 290° West 281 323 9,200 1,860 Climbing FlightAware
04:35AM 41.2610 1.7370 289° West 306 352 10,500 1,380 Climbing FlightAware
04:36AM 41.2800 1.6690 290° West 342 394 11,100 1,740 Climbing FlightAware
04:37AM 41.3080 1.5660 290° West 354 407 13,000 2,280 Climbing FlightAware
04:37AM 41.3310 1.4820 290° West 359 413 14,600 2,040 Climbing FlightAware
04:38AM 41.3560 1.3890 290° West 370 426 15,900 1,800 Climbing FlightAware
04:39AM 41.3790 1.3030 290° West 377 434 17,200 1,860 Climbing FlightAware
04:40AM 41.4060 1.2010 289° West 383 441 18,600 1,800 Climbing FlightAware
04:40AM 41.4300 1.1120 290° West 388 447 19,800 1,680 Climbing FlightAware
04:41AM 41.4540 1.0230 290° West 393 452 20,900 1,500 Climbing FlightAware
04:42AM 41.4810 0.9210 289° West 399 459 22,000 1,380 Climbing FlightAware
04:42AM 41.5060 0.8260 289° West 407 468 22,900 1,380 Climbing FlightAware
04:43AM 41.5360 0.7170 290° West 413 475 24,000 1,320 Climbing FlightAware
04:44AM 41.5700 0.6260 297° West 418 481 24,800 1,200 Climbing FlightAware
04:44AM 41.6150 0.5410 305° West 424 488 25,600 1,080 Climbing FlightAware
04:45AM 41.6700 0.4510 309° West 430 495 26,400 1,020 Climbing FlightAware
04:46AM 41.7190 0.3640 307° West 436 502 27,100 1,020 Climbing FlightAware
04:46AM 41.7560 0.2690 298° West 442 509 27,800 1,200 Climbing FlightAware
04:47AM 41.7880 0.1480 290° West 442 509 28,800 1,200 Climbing FlightAware
04:48AM 41.8130 0.0440 288° West 444 511 29,500 1,380 Climbing FlightAware
04:49AM 41.8380 -0.0650 287° West 431 496 30,800 1,320 Climbing FlightAware
04:49AM 41.8620 -0.1660 288° West 432 497 31,400 600 Climbing FlightAware
04:50AM 41.8870 -0.2730 287° West 442 509 31,600 300 Climbing FlightAware
04:51AM 41.9150 -0.3950 287° West 451 519 31,900 600 Climbing FlightAware
04:51AM 41.9400 -0.5050 287° West 452 520 32,500 720 Climbing FlightAware
04:52AM 41.9660 -0.6200 287° West 453 521 33,000 300 Climbing FlightAware
04:53AM 41.9910 -0.7290 287° West 453 521 33,000  Level FlightAware
04:53AM 42.0160 -0.8390 287° West 453 521 33,000  Level FlightAware
04:54AM 42.0430 -0.9600 287° West 454 522 33,000  Level FlightAware
04:55AM 42.0670 -1.0700 286° West 452 520 33,000  Level FlightAware
04:56AM 42.0900 -1.1740 287° West 451 519 33,000  Level FlightAware
04:56AM 42.1170 -1.2950 287° West 452 520 33,000  Level FlightAware
04:57AM 42.1410 -1.4040 287° West 451 519 33,000  Level FlightAware
04:58AM 42.1680 -1.5290 286° West 450 518 33,000  Level FlightAware
04:58AM 42.1920 -1.6370 287° West 451 519 33,000  Level FlightAware
04:59AM 42.2170 -1.7540 286° West 451 519 33,000  Level FlightAware
05:00AM 42.2400 -1.8610 286° West 450 518 33,000  Level FlightAware
05:01AM 42.2670 -1.9850 286° West 450 518 33,000  Level FlightAware
05:01AM 42.2900 -2.0940 286° West 450 518 33,000  Level FlightAware
05:02AM 42.3120 -2.2000 286° West 450 518 33,000  Level FlightAware
05:03AM 42.3370 -2.3160 286° West 448 516 33,000  Level FlightAware
05:03AM 42.3580 -2.4200 285° West 449 517 33,000  Level FlightAware
05:04AM 42.3830 -2.5390 286° West 450 518 33,000  Level FlightAware
05:05AM 42.4060 -2.6510 286° West 452 520 33,000  Level FlightAware
05:05AM 42.4320 -2.7780 286° West 449 517 33,000  Level FlightAware
05:06AM 42.4540 -2.8880 285° West 449 517 33,000  Level FlightAware
05:07AM 42.4660 -2.9940 279° West 448 516 33,000  Level FlightAware
05:08AM 42.4800 -3.1230 278° West 449 517 33,000 420 Level FlightAware
05:08AM 42.4920 -3.2350 278° West 448 516 33,600 960 Climbing FlightAware
05:09AM 42.5040 -3.3480 278° West 445 512 34,300 960 Climbing FlightAware
05:10AM 42.5180 -3.4770 278° West 444 511 35,000 840 Climbing FlightAware
05:10AM 42.5290 -3.5840 278° West 443 510 35,500 660 Climbing FlightAware
05:11AM 42.5400 -3.6900 278° West 442 509 35,900 720 Climbing FlightAware
05:12AM 42.5530 -3.8180 278° West 439 505 36,600 720 Climbing FlightAware
05:12AM 42.5650 -3.9370 278° West 437 503 37,000 240 Climbing FlightAware
05:13AM 42.5760 -4.0450 278° West 437 503 37,000  Level FlightAware
05:14AM 42.5870 -4.1530 278° West 437 503 37,000  Level FlightAware
05:15AM 42.5990 -4.2750 278° West 437 503 37,000  Level FlightAware
05:15AM 42.6090 -4.3810 277° West 439 505 37,000  Level FlightAware
05:16AM 42.6210 -4.5070 277° West 439 505 37,000  Level FlightAware
05:17AM 42.6320 -4.6180 278° West 440 506 37,000  Level FlightAware
05:17AM 42.6420 -4.7280 277° West 441 507 37,000  Level FlightAware
05:18AM 42.6530 -4.8490 277° West 442 509 37,000  Level FlightAware
05:19AM 42.6640 -4.9620 278° West 442 509 37,000  Level FlightAware
05:19AM 42.6750 -5.0860 277° West 441 507 37,000  Level FlightAware
05:20AM 42.6850 -5.1940 277° West 441 507 37,000  Level FlightAware
05:21AM 42.6950 -5.3050 277° West 440 506 37,000  Level FlightAware
05:22AM 42.7050 -5.4260 276° West 440 506 37,000  Level FlightAware
05:22AM 42.7150 -5.5330 277° West 441 507 37,000  Level FlightAware
05:23AM 42.7260 -5.6610 277° West 441 507 37,000  Level FlightAware
05:24AM 42.7350 -5.7690 277° West 441 507 37,000 360 Level FlightAware
05:24AM 42.7440 -5.8780 276° West 440 506 37,500 660 Climbing FlightAware
05:25AM 42.7540 -6.0030 276° West 436 502 38,000 300 Climbing FlightAware
05:26AM 42.7630 -6.1100 277° West 436 502 38,000  Level FlightAware
05:26AM 42.7720 -6.2180 277° West 436 502 38,000  Level FlightAware
05:27AM 42.7810 -6.3390 276° West 435 501 38,000  Level FlightAware
05:28AM 42.7900 -6.4470 277° West 437 503 38,000  Level FlightAware
05:28AM 42.7970 -6.5470 275° West 438 504 38,000  Level FlightAware
05:29AM 42.8100 -6.7110 276° West 438 504 38,000  Level FlightAware
05:30AM 42.8180 -6.8200 276° West 437 503 38,000  Level FlightAware
05:31AM 42.8270 -6.9370 276° West 438 504 38,000  Level FlightAware
05:32AM 42.8350 -7.0490 276° West 438 504 38,000  Level FlightAware
05:32AM 42.8450 -7.1820 276° West 437 503 38,000  Level FlightAware
05:33AM 42.8540 -7.3100 276° West 437 503 38,000  Level FlightAware
05:34AM 42.8590 -7.3900 275° West 436 502 38,000  Level FlightAware
05:35AM 42.8690 -7.5290 276° West 437 503 38,000  Level FlightAware
05:35AM 42.8770 -7.6430 276° West 438 504 38,000  Level FlightAware
05:36AM 42.8850 -7.7590 275° West 438 504 38,000  Level FlightAware
05:37AM 42.8920 -7.8730 275° West 437 503 38,000  Level FlightAware
05:37AM 42.9000 -7.9940 275° West 436 502 38,000  Level FlightAware
05:38AM 42.9070 -8.1030 275° West 436 502 38,000  Level FlightAware
05:39AM 42.9140 -8.2160 275° West 435 501 38,000  Level FlightAware
05:39AM 42.9210 -8.3280 275° West 435 501 38,000  Level FlightAware
05:40AM 42.9280 -8.4280 275° West 435 501 38,000  Level FlightAware
05:41AM 42.9460 -8.5530 281° West 437 503 38,000  Level FlightAware
05:41AM 42.9590 -8.6480 281° West 436 502 38,000  Level FlightAware
05:42AM 42.9790 -8.7840 281° West 434 499 38,000  Level FlightAware
05:43AM 42.9930 -8.8800 281° West 432 497 38,000  Level FlightAware
05:44AM 43.0100 -9.0000 281° West 431 496 38,000  Level FlightAware
05:44AM 43.0250 -9.1100 281° West 430 495 38,000  Level FlightAware
05:45AM 43.0410 -9.2240 281° West 429 494 38,000  Level FlightAware
05:46AM 43.0550 -9.3210 281° West 430 495 38,000  Level FlightAware
05:47AM 43.0940 -9.6100 281° West 434 499 38,000  Level FlightAware
05:48AM 43.1090 -9.7200 281° West 432 497 38,000  Level FlightAware
05:49AM 43.1240 -9.8300 281° West 430 495 38,000  Level FlightAware
05:49AM 43.1380 -9.9360 280° West 429 494 38,000  Level FlightAware
05:50AM 43.1500 -10.0300 280° West 429 494 38,000  Level FlightAware
05:51AM 43.1700 -10.1780 281° West 428 493 38,000  Level FlightAware
05:51AM 43.1820 -10.2750 280° West 428 493 38,000  Level FlightAware
05:52AM 43.1960 -10.3810 280° West 429 494 38,000  Level FlightAware
05:53AM 43.2090 -10.4870 280° West 431 496 38,000  Level FlightAware
05:53AM 43.2220 -10.5890 280° West 432 497 38,000  Level FlightAware
05:54AM 43.2380 -10.7120 280° West 430 495 38,000  Level FlightAware
05:55AM 43.2540 -10.8430 280° West 426 490 38,000  Level FlightAware
05:56AM 43.2640 -10.9220 280° West 426 490 38,000  Level FlightAware
05:56AM 43.2780 -11.0370 280° West 424 488 38,000  Level FlightAware
05:57AM 43.2910 -11.1460 279° West 425 489 38,000  Level FlightAware
05:58AM 43.3030 -11.2420 280° West 424 488 38,000  Level FlightAware
05:58AM 43.3180 -11.3700 279° West 422 486 38,000  Level FlightAware
05:59AM 43.3320 -11.4850 280° West 421 484 38,000  Level FlightAware
06:00AM 43.3490 -11.6280 279° West 420 483 38,000  Level FlightAware
06:01AM 43.3610 -11.7360 279° West 419 482 38,000  Level FlightAware
06:01AM 43.3740 -11.8430 280° West 419 482 38,000  Level FlightAware
06:02AM 43.3860 -11.9600 278° West 420 483 38,000  Level FlightAware
06:03AM 43.3970 -12.0510 279° West 420 483 38,000  Level FlightAware
06:04AM 43.4110 -12.1780 279° West 421 484 38,000  Level FlightAware
06:04AM 43.4200 -12.2660 278° West 421 484 38,000  Level FlightAware
06:05AM 43.4300 -12.3570 279° West 421 484 38,000  Level FlightAware
06:06AM 43.4410 -12.4700 278° West 421 484 38,000  Level FlightAware
06:06AM 43.4500 -12.5600 278° West 421 484 38,000  Level FlightAware
06:07AM 43.4590 -12.6500 278° West 421 484 38,000  Level FlightAware
06:08AM 43.4690 -12.7410 279° West 421 484 38,000  Level FlightAware
06:08AM 43.4800 -12.8540 278° West 421 484 38,000  Level FlightAware
06:09AM 43.4890 -12.9440 278° West 421 484 38,000  Level FlightAware
06:10AM 43.4990 -13.0340 279° West 421 484 38,000  Level FlightAware
06:10AM 43.5080 -13.1250 278° West 421 484 38,000  Level FlightAware
06:11AM 43.5170 -13.2150 278° West 421 484 38,000  Level FlightAware
06:12AM 43.5290 -13.3280 278° West 421 484 38,000  Level FlightAware
06:13AM 43.5380 -13.4190 278° West 421 484 38,000  Level FlightAware
06:13AM 43.5470 -13.5090 278° West 421 484 38,000  Level FlightAware
06:16AM 43.6232 -13.8368 288° West  Level Estimated
06:17AM 43.6572 -13.9850 288° West  Level Estimated
06:18AM 43.6911 -14.1333 288° West  Level Estimated
06:19AM 43.7248 -14.2818 287° West  Level Estimated
06:20AM 43.7582 -14.4304 287° West  Level Estimated
06:21AM 43.7915 -14.5792 287° West  Level Estimated
06:22AM 43.8246 -14.7282 287° West  Level Estimated
06:23AM 43.8575 -14.8774 287° West  Level Estimated
06:24AM 43.8902 -15.0267 287° West  Level Estimated
06:25AM 43.9227 -15.1762 287° West  Level Estimated
06:26AM 43.9550 -15.3258 287° West  Level Estimated
06:27AM 43.9871 -15.4756 287° West  Level Estimated
06:28AM 44.0191 -15.6256 287° West  Level Estimated
06:29AM 44.0508 -15.7757 286° West  Level Estimated
06:30AM 44.0823 -15.9260 286° West  Level Estimated
06:31AM 44.1137 -16.0764 286° West  Level Estimated
06:32AM 44.1448 -16.2270 286° West  Level Estimated
06:33AM 44.1757 -16.3778 286° West  Level Estimated
06:34AM 44.2065 -16.5287 286° West  Level Estimated
06:35AM 44.2370 -16.6798 286° West  Level Estimated
06:36AM 44.2674 -16.8310 286° West  Level Estimated
06:37AM 44.2975 -16.9824 286° West  Level Estimated
06:38AM 44.3274 -17.1339 285° West  Level Estimated
06:39AM 44.3572 -17.2856 285° West  Level Estimated
06:40AM 44.3867 -17.4375 285° West  Level Estimated
06:41AM 44.4161 -17.5895 285° West  Level Estimated
06:42AM 44.4452 -17.7416 285° West  Level Estimated
06:43AM 44.4741 -17.8939 285° West  Level Estimated
06:44AM 44.5029 -18.0464 285° West  Level Estimated
06:45AM 44.5314 -18.1990 285° West  Level Estimated
06:46AM 44.5597 -18.3518 285° West  Level Estimated
06:47AM 44.5878 -18.5047 285° West  Level Estimated
06:48AM 44.6157 -18.6577 284° West  Level Estimated
06:49AM 44.6435 -18.8109 284° West  Level Estimated
06:50AM 44.6710 -18.9643 284° West  Level Estimated
06:51AM 44.6983 -19.1178 284° West  Level Estimated
06:52AM 44.7254 -19.2714 284° West  Level Estimated
06:53AM 44.7523 -19.4252 284° West  Level Estimated
06:54AM 44.7789 -19.5791 284° West  Level Estimated
06:55AM 44.8054 -19.7332 284° West  Level Estimated
06:56AM 44.8317 -19.8874 284° West  Level Estimated
06:57AM 44.8577 -20.0417 283° West  Level Estimated
06:58AM 44.8836 -20.1962 283° West  Level Estimated
06:59AM 44.9092 -20.3508 283° West  Level Estimated
06:59AM 46.0000 -20.0000 282° West 424 488 38,000  Level ETMS Enhanced Traffic Management System
07:00AM 44.9347 -20.5056 283° West  Level Estimated
07:01AM 44.9599 -20.6602 283° West  Level Estimated
07:02AM 44.9848 -20.8149 283° West  Level Estimated
07:03AM 45.0096 -20.9697 283° West  Level Estimated
07:04AM 45.0341 -21.1247 283° West  Level Estimated
07:05AM 46.1638 -21.1653 281° West 424 488 38,000  Level FlightAware Transoceanic
07:06AM 46.1862 -21.3323 281° West 424 488 38,000  Level FlightAware Transoceanic
07:07AM 46.2084 -21.4994 281° West 424 488 38,000  Level FlightAware Transoceanic
07:08AM 46.2304 -21.6667 281° West 424 488 38,000  Level FlightAware Transoceanic
07:09AM 46.2521 -21.8342 281° West 424 488 38,000  Level FlightAware Transoceanic
07:10AM 46.2735 -22.0017 280° West 424 488 38,000  Level FlightAware Transoceanic
07:11AM 46.2948 -22.1694 280° West 424 488 38,000  Level FlightAware Transoceanic
07:12AM 46.3157 -22.3372 280° West 424 488 38,000  Level FlightAware Transoceanic
07:13AM 46.3364 -22.5052 280° West 424 488 38,000  Level FlightAware Transoceanic
07:14AM 46.3569 -22.6732 280° West 424 488 38,000  Level FlightAware Transoceanic
07:15AM 46.3771 -22.8414 280° West 424 488 38,000  Level FlightAware Transoceanic
07:16AM 46.3971 -23.0098 280° West 424 488 38,000  Level FlightAware Transoceanic
07:17AM 46.4169 -23.1782 280° West 424 488 38,000  Level FlightAware Transoceanic
07:18AM 46.4363 -23.3468 279° West 424 488 38,000  Level FlightAware Transoceanic
07:19AM 46.4556 -23.5154 279° West 424 488 38,000  Level FlightAware Transoceanic
07:20AM 46.4746 -23.6842 279° West 424 488 38,000  Level FlightAware Transoceanic
07:21AM 46.4933 -23.8532 279° West 424 488 38,000  Level FlightAware Transoceanic
07:22AM 46.5118 -24.0222 279° West 424 488 38,000  Level FlightAware Transoceanic
07:23AM 46.5300 -24.1914 279° West 424 488 38,000  Level FlightAware Transoceanic
07:24AM 46.5480 -24.3606 279° West 424 488 38,000  Level FlightAware Transoceanic
07:25AM 46.5658 -24.5300 279° West 424 488 38,000  Level FlightAware Transoceanic
07:26AM 46.5833 -24.6995 278° West 424 488 38,000  Level FlightAware Transoceanic
07:27AM 46.6005 -24.8691 278° West 424 488 38,000  Level FlightAware Transoceanic
07:28AM 46.6175 -25.0388 278° West 424 488 38,000  Level FlightAware Transoceanic
07:29AM 46.6343 -25.2086 278° West 424 488 38,000  Level FlightAware Transoceanic
07:30AM 46.6507 -25.3785 278° West 424 488 38,000  Level FlightAware Transoceanic
07:31AM 46.6670 -25.5485 278° West 424 488 38,000  Level FlightAware Transoceanic
07:32AM 46.6830 -25.7186 278° West 424 488 38,000  Level FlightAware Transoceanic
07:33AM 46.6987 -25.8888 278° West 424 488 38,000  Level FlightAware Transoceanic
07:34AM 46.7142 -26.0591 277° West 424 488 38,000  Level FlightAware Transoceanic
07:35AM 46.7294 -26.2295 277° West 424 488 38,000  Level FlightAware Transoceanic
07:36AM 46.7444 -26.4000 277° West 424 488 38,000  Level FlightAware Transoceanic
07:37AM 46.7591 -26.5707 277° West 424 488 38,000  Level FlightAware Transoceanic
07:38AM 46.7736 -26.7413 277° West 424 488 38,000  Level FlightAware Transoceanic
07:39AM 46.7878 -26.9121 277° West 424 488 38,000  Level FlightAware Transoceanic
07:40AM 46.8018 -27.0830 277° West 424 488 38,000  Level FlightAware Transoceanic
07:41AM 46.8155 -27.2540 277° West 424 488 38,000  Level FlightAware Transoceanic
07:42AM 46.8289 -27.4250 276° West 424 488 38,000  Level FlightAware Transoceanic
07:43AM 46.8421 -27.5961 276° West 424 488 38,000  Level FlightAware Transoceanic
07:44AM 46.8551 -27.7673 276° West 424 488 38,000  Level FlightAware Transoceanic
07:45AM 46.8678 -27.9386 276° West 424 488 38,000  Level FlightAware Transoceanic
07:46AM 46.8802 -28.1100 276° West 424 488 38,000  Level FlightAware Transoceanic
07:47AM 46.8924 -28.2815 276° West 424 488 38,000  Level FlightAware Transoceanic
07:48AM 46.9043 -28.4530 276° West 424 488 38,000  Level FlightAware Transoceanic
07:49AM 46.9160 -28.6246 276° West 424 488 38,000  Level FlightAware Transoceanic
07:50AM 46.9273 -28.7963 275° West 424 488 38,000  Level FlightAware Transoceanic
07:51AM 46.9385 -28.9681 275° West 424 488 38,000  Level FlightAware Transoceanic
07:52AM 46.9494 -29.1399 275° West 424 488 38,000  Level FlightAware Transoceanic
07:53AM 46.9600 -29.3118 275° West 424 488 38,000  Level FlightAware Transoceanic
07:54AM 46.9704 -29.4837 275° West 424 488 38,000  Level FlightAware Transoceanic
07:55AM 46.9805 -29.6558 275° West 424 488 38,000  Level FlightAware Transoceanic
07:56AM 46.9904 -29.8279 275° West 424 488 38,000  Level FlightAware Transoceanic
07:57AM 46.9998 -29.9919 275° West  Level Estimated
07:58AM 47.0089 -30.1560 275° West  Level Estimated
07:59AM 47.0179 -30.3201 275° West  Level Estimated
08:00AM 47.0266 -30.4843 275° West  Level Estimated
08:01AM 47.0350 -30.6482 274° West  Level Estimated
08:02AM 47.0432 -30.8122 274° West  Level Estimated
08:03AM 47.0512 -30.9762 274° West  Level Estimated
08:04AM 47.0589 -31.1403 274° West  Level Estimated
08:05AM 47.0664 -31.3044 274° West  Level Estimated
08:06AM 47.0737 -31.4685 274° West  Level Estimated
08:07AM 47.0807 -31.6328 274° West  Level Estimated
08:08AM 47.0876 -31.7970 274° West  Level Estimated
08:09AM 47.0941 -31.9613 273° West  Level Estimated
08:10AM 47.1004 -32.1256 273° West  Level Estimated
08:11AM 47.1065 -32.2900 273° West  Level Estimated
08:12AM 47.1124 -32.4544 273° West  Level Estimated
08:13AM 47.1180 -32.6188 273° West  Level Estimated
08:14AM 47.1234 -32.7833 273° West  Level Estimated
08:15AM 47.1286 -32.9478 273° West  Level Estimated
08:16AM 47.1335 -33.1124 273° West  Level Estimated
08:17AM 47.1382 -33.2769 272° West  Level Estimated
08:18AM 47.1426 -33.4415 272° West  Level Estimated
08:19AM 47.1469 -33.6062 272° West  Level Estimated
08:20AM 47.1508 -33.7708 272° West  Level Estimated
08:21AM 47.1546 -33.9355 272° West  Level Estimated
08:22AM 47.1581 -34.1002 272° West  Level Estimated
08:23AM 47.1613 -34.2649 272° West  Level Estimated
08:24AM 47.1644 -34.4296 272° West  Level Estimated
08:25AM 47.1672 -34.5944 271° West  Level Estimated
08:26AM 47.1697 -34.7591 271° West  Level Estimated
08:27AM 47.1721 -34.9239 271° West  Level Estimated
08:28AM 47.1741 -35.0887 271° West  Level Estimated
08:29AM 47.1760 -35.2535 271° West  Level Estimated
08:30AM 47.1776 -35.4183 271° West  Level Estimated
08:31AM 47.1790 -35.5832 271° West  Level Estimated
08:32AM 47.1801 -35.7480 271° West  Level Estimated
08:33AM 47.1810 -35.9128 271° West  Level Estimated
08:34AM 47.1817 -36.0777 270° West  Level Estimated
08:35AM 47.1821 -36.2425 270° West  Level Estimated
08:36AM 47.1823 -36.4074 270° West  Level Estimated
08:37AM 47.1823 -36.5723 270° West  Level Estimated
08:38AM 47.1820 -36.7371 270° West  Level Estimated
08:39AM 47.1815 -36.9020 270° West  Level Estimated
08:40AM 47.1808 -37.0668 270° West  Level Estimated
08:41AM 47.1798 -37.2317 270° West  Level Estimated
08:42AM 47.1786 -37.3965 269° West  Level Estimated
08:43AM 47.1771 -37.5613 269° West  Level Estimated
08:44AM 47.1754 -37.7262 269° West  Level Estimated
08:45AM 47.1735 -37.8910 269° West  Level Estimated
08:46AM 47.1713 -38.0558 269° West  Level Estimated
08:47AM 47.1689 -38.2205 269° West  Level Estimated
08:48AM 47.1662 -38.3853 269° West  Level Estimated
08:49AM 47.1634 -38.5500 269° West  Level Estimated
08:50AM 47.1603 -38.7148 268° West  Level Estimated
08:51AM 47.1569 -38.8795 268° West  Level Estimated
08:52AM 47.1533 -39.0442 268° West  Level Estimated
08:53AM 47.1495 -39.2088 268° West  Level Estimated
08:54AM 47.1455 -39.3735 268° West  Level Estimated
08:55AM 47.1412 -39.5381 268° West  Level Estimated
08:56AM 47.1366 -39.7027 268° West  Level Estimated
08:57AM 47.1319 -39.8672 268° West  Level Estimated
08:58AM 47.1269 -40.0318 268° West  Level Estimated
08:59AM 47.1216 -40.1963 267° West  Level Estimated
09:00AM 47.1162 -40.3607 267° West  Level Estimated
09:01AM 47.1105 -40.5252 267° West  Level Estimated
09:02AM 47.1045 -40.6895 267° West  Level Estimated
09:03AM 47.0983 -40.8539 267° West  Level Estimated
09:04AM 47.0919 -41.0182 267° West  Level Estimated
09:05AM 47.0853 -41.1825 267° West  Level Estimated
09:06AM 47.0784 -41.3467 267° West  Level Estimated
09:07AM 47.0713 -41.5109 266° West  Level Estimated
09:08AM 47.0639 -41.6751 266° West  Level Estimated
09:09AM 47.0563 -41.8392 266° West  Level Estimated
09:10AM 47.0485 -42.0032 266° West  Level Estimated
09:11AM 47.0405 -42.1672 266° West  Level Estimated
09:12AM 47.0322 -42.3312 266° West  Level Estimated
09:13AM 47.0237 -42.4951 266° West  Level Estimated
09:14AM 47.0149 -42.6589 266° West  Level Estimated
09:15AM 47.0059 -42.8227 265° West  Level Estimated
09:16AM 46.9967 -42.9864 265° West  Level Estimated
09:17AM 46.9872 -43.1501 265° West  Level Estimated
09:18AM 46.9775 -43.3137 265° West  Level Estimated
09:19AM 46.9676 -43.4773 265° West  Level Estimated
09:20AM 46.9575 -43.6408 265° West  Level Estimated
09:21AM 46.9471 -43.8042 265° West  Level Estimated
09:22AM 46.9365 -43.9676 265° West  Level Estimated
09:23AM 46.9256 -44.1309 265° West  Level Estimated
09:24AM 46.9145 -44.2942 264° West  Level Estimated
09:25AM 46.9032 -44.4573 264° West  Level Estimated
09:26AM 46.8917 -44.6204 264° West  Level Estimated
09:27AM 46.8799 -44.7835 264° West  Level Estimated
09:28AM 46.8679 -44.9464 264° West  Level Estimated
09:29AM 46.8556 -45.1093 264° West  Level Estimated
09:30AM 46.8432 -45.2721 264° West  Level Estimated
09:31AM 46.8305 -45.4349 264° West  Level Estimated
09:32AM 46.8175 -45.5975 263° West  Level Estimated
09:33AM 46.8044 -45.7601 263° West  Level Estimated
09:34AM 46.7910 -45.9226 263° West  Level Estimated
09:35AM 46.7774 -46.0850 263° West  Level Estimated
09:36AM 46.7635 -46.2474 263° West  Level Estimated
09:37AM 46.7494 -46.4096 263° West  Level Estimated
09:38AM 46.7351 -46.5718 263° West  Level Estimated
09:39AM 46.7206 -46.7339 263° West  Level Estimated
09:40AM 46.7058 -46.8959 262° West  Level Estimated
09:41AM 46.6908 -47.0578 262° West  Level Estimated
09:42AM 46.6756 -47.2196 262° West  Level Estimated
09:43AM 46.6601 -47.3813 262° West  Level Estimated
09:44AM 46.6444 -47.5429 262° West  Level Estimated
09:44AM 44.5833 -47.5833 252° West 416 479 40,000  Level New York Oceanic (ODAPS)
09:45AM 46.6285 -47.7044 262° West  Level Estimated
09:46AM 46.6124 -47.8659 262° West  Level Estimated
09:47AM 46.5960 -48.0272 262° West  Level Estimated
09:48AM 46.5794 -48.1885 262° West  Level Estimated
09:49AM 46.5626 -48.3496 261° West  Level Estimated
09:50AM 44.3706 -48.4952 252° West 416 479 40,000  Level FlightAware Transoceanic
09:51AM 44.3344 -48.6465 251° West 416 479 40,000  Level FlightAware Transoceanic
09:52AM 44.2980 -48.7977 251° West 416 479 40,000  Level FlightAware Transoceanic
09:53AM 44.2615 -48.9486 251° West 416 479 40,000  Level FlightAware Transoceanic
09:54AM 44.2247 -49.0994 251° West 416 479 40,000  Level FlightAware Transoceanic
09:55AM 44.1878 -49.2500 251° West 416 479 40,000  Level FlightAware Transoceanic
09:56AM 44.1506 -49.4003 251° West 416 479 40,000  Level FlightAware Transoceanic
09:57AM 44.1132 -49.5505 251° West 416 479 40,000  Level FlightAware Transoceanic
09:58AM 44.0757 -49.7006 251° West 416 479 40,000  Level FlightAware Transoceanic
09:59AM 44.0379 -49.8504 251° West 416 479 40,000  Level FlightAware Transoceanic
10:00AM 44.0000 -50.0000 263° West 416 479 40,000  Level FlightAware Transoceanic
10:00AM 44.0667 -49.7333 251° West 389 448 40,000  Level New York Oceanic (ODAPS)
10:01AM 43.9872 -50.1534 263° West 416 479 40,000  Level FlightAware Transoceanic
10:01AM 44.0000 -50.0000 263° West 401 461 40,000  Level New York Oceanic (ODAPS)
10:02AM 43.9742 -50.3067 263° West 416 479 40,000  Level FlightAware Transoceanic
10:03AM 43.9610 -50.4600 263° West 416 479 40,000  Level FlightAware Transoceanic
10:04AM 43.9475 -50.6131 263° West 416 479 40,000  Level FlightAware Transoceanic
10:05AM 43.9339 -50.7663 263° West 416 479 40,000  Level FlightAware Transoceanic
10:06AM 43.9201 -50.9193 263° West 416 479 40,000  Level FlightAware Transoceanic
10:06AM 43.9500 -50.5000 263° West 397 457 40,000  Level New York Oceanic (ODAPS)
10:07AM 43.9060 -51.0723 263° West 401 461 40,000  Level FlightAware Transoceanic
10:08AM 43.8918 -51.2252 263° West 401 461 40,000  Level FlightAware Transoceanic
10:09AM 43.8773 -51.3780 262° West 401 461 40,000  Level FlightAware Transoceanic
10:10AM 43.8627 -51.5307 262° West 401 461 40,000  Level FlightAware Transoceanic
10:11AM 43.8478 -51.6834 262° West 401 461 40,000  Level FlightAware Transoceanic
10:12AM 43.8234 -51.8684 262° West 397 457 40,000  Level FlightAware Transoceanic
10:13AM 43.8084 -52.0201 262° West 397 457 40,000  Level FlightAware Transoceanic
10:14AM 43.7931 -52.1717 262° West 397 457 40,000  Level FlightAware Transoceanic
10:15AM 43.7776 -52.3232 262° West 397 457 40,000  Level FlightAware Transoceanic
10:16AM 43.7620 -52.4747 262° West 397 457 40,000  Level FlightAware Transoceanic
10:16AM 43.7500 -52.6000 262° West 387 445 40,000  Level New York Oceanic (ODAPS)
10:17AM 43.7461 -52.6260 262° West 397 457 40,000  Level FlightAware Transoceanic
10:18AM 43.7300 -52.7773 262° West 397 457 40,000  Level FlightAware Transoceanic
10:19AM 43.7138 -52.9285 261° West 397 457 40,000  Level FlightAware Transoceanic
10:20AM 43.6973 -53.0796 261° West 397 457 40,000  Level FlightAware Transoceanic
10:21AM 43.6806 -53.2307 261° West 397 457 40,000  Level FlightAware Transoceanic
10:22AM 43.6638 -53.3816 261° West 397 457 40,000  Level FlightAware Transoceanic
10:23AM 43.6530 -53.4857 261° West 387 445 40,000  Level FlightAware Transoceanic
10:24AM 43.6362 -53.6331 261° West 387 445 40,000  Level FlightAware Transoceanic
10:25AM 43.6191 -53.7803 261° West 387 445 40,000  Level FlightAware Transoceanic
10:26AM 43.6019 -53.9275 261° West 387 445 40,000  Level FlightAware Transoceanic
10:27AM 43.5845 -54.0746 261° West 387 445 40,000  Level FlightAware Transoceanic
10:28AM 43.5669 -54.2216 261° West 387 445 40,000  Level FlightAware Transoceanic
10:29AM 43.5491 -54.3685 260° West 387 445 40,000  Level FlightAware Transoceanic
10:30AM 43.5312 -54.5154 260° West 387 445 40,000  Level FlightAware Transoceanic
10:30AM 43.5167 -54.6500 260° West 384 442 40,000  Level New York Oceanic (ODAPS)
10:31AM 43.5130 -54.6621 260° West 387 445 40,000  Level FlightAware Transoceanic
10:32AM 43.4947 -54.8088 260° West 387 445 40,000  Level FlightAware Transoceanic
10:33AM 43.4762 -54.9553 260° West 387 445 40,000  Level FlightAware Transoceanic
10:34AM 43.4575 -55.1018 260° West 387 445 40,000  Level FlightAware Transoceanic
10:35AM 43.4385 -55.2482 260° West 387 445 40,000  Level FlightAware Transoceanic
10:36AM 43.4080 -55.4937 260° West 384 442 40,000  Level FlightAware Transoceanic
10:37AM 43.3893 -55.6340 260° West 384 442 40,000  Level FlightAware Transoceanic
10:38AM 43.3704 -55.7742 259° West 384 442 40,000  Level FlightAware Transoceanic
10:39AM 43.3513 -55.9143 259° West 384 442 40,000  Level FlightAware Transoceanic
10:40AM 43.3321 -56.0544 259° West 384 442 40,000  Level FlightAware Transoceanic
10:41AM 43.3127 -56.1943 259° West 384 442 40,000  Level FlightAware Transoceanic
10:42AM 43.2931 -56.3342 259° West 384 442 40,000  Level FlightAware Transoceanic
10:43AM 43.2734 -56.4740 259° West 384 442 40,000  Level FlightAware Transoceanic
10:44AM 43.2535 -56.6137 259° West 384 442 40,000  Level FlightAware Transoceanic
10:44AM 43.2500 -56.6667 259° West 387 445 40,000  Level New York Oceanic (ODAPS)
10:45AM 43.2334 -56.7533 259° West 384 442 40,000  Level FlightAware Transoceanic
10:46AM 43.2132 -56.8928 259° West 384 442 40,000  Level FlightAware Transoceanic
10:47AM 43.1927 -57.0322 259° West 384 442 40,000  Level FlightAware Transoceanic
10:48AM 43.1721 -57.1715 258° West 384 442 40,000  Level FlightAware Transoceanic
10:49AM 43.1514 -57.3107 258° West 384 442 40,000  Level FlightAware Transoceanic
10:50AM 43.1292 -57.4675 258° West 387 445 40,000  Level FlightAware Transoceanic
10:51AM 43.1085 -57.6006 258° West 387 445 40,000  Level FlightAware Transoceanic
10:52AM 43.0877 -57.7337 258° West 387 445 40,000  Level FlightAware Transoceanic
10:53AM 43.0667 -57.8667 268° West 387 445 40,000  Level FlightAware Transoceanic
10:53AM 43.0500 -57.9000 268° West 380 437 40,000  Level Moncton Center
10:54AM 43.0635 -58.0090 268° West 387 445 40,000  Level FlightAware Transoceanic
10:54AM 43.0500 -58.0333 270° West 390 449 40,000  Level Moncton Center
10:55AM 43.0601 -58.1514 268° West 387 445 40,000  Level FlightAware Transoceanic
10:55AM 43.0333 -58.1833 261° West 380 437 40,000  Level Moncton Center
10:56AM 43.0565 -58.2937 268° West 387 445 40,000  Level FlightAware Transoceanic
10:56AM 43.0500 -58.3333 279° West 380 437 40,000  Level Moncton Center
10:57AM 43.0528 -58.4360 268° West 387 445 40,000  Level FlightAware Transoceanic
10:57AM 43.0333 -58.4833 261° West 380 437 40,000  Level Moncton Center
10:58AM 43.0489 -58.5783 268° West 387 445 40,000  Level FlightAware Transoceanic
10:58AM 43.0333 -58.6333 270° West 380 437 40,000  Level Moncton Center
10:59AM 43.0333 -58.7667 270° West 380 437 40,000  Level Moncton Center
11:00AM 43.0333 -58.9167 270° West 380 437 40,000  Level Moncton Center
11:01AM 43.0167 -59.0667 261° West 390 449 40,000  Level Moncton Center
11:02AM 43.0167 -59.2167 270° West 380 437 40,000  Level Moncton Center
11:03AM 43.0167 -59.3500 270° West 380 437 40,000  Level Moncton Center
11:04AM 43.0000 -59.4833 260° West 380 437 40,000  Level Moncton Center
11:05AM 43.0000 -59.6500 270° West 390 449 40,000  Level Moncton Center
11:06AM 42.9833 -59.8000 261° West 390 449 40,000  Level Moncton Center
11:07AM 43.0000 -59.9500 279° West 380 437 40,000  Level Moncton Center
11:08AM 42.9833 -60.0833 260° West 380 437 40,000  Level Moncton Center
11:09AM 42.9667 -60.2500 262° West 380 437 40,000  Level Moncton Center
11:10AM 42.9833 -60.3833 280° West 390 449 40,000  Level Moncton Center
11:11AM 42.9667 -60.5167 260° West 390 449 40,000  Level Moncton Center
11:12AM 42.9667 -60.6833 270° West 390 449 40,000  Level Moncton Center
11:13AM 42.9667 -60.8167 270° West 380 437 40,000  Level Moncton Center
11:14AM 42.9667 -60.9500 270° West 380 437 40,000  Level Moncton Center
11:15AM 42.9500 -61.1167 262° West 390 449 40,000  Level Moncton Center
11:16AM 42.9500 -61.2500 270° West 390 449 40,000  Level Moncton Center
11:17AM 42.9500 -61.4000 270° West 390 449 40,000  Level Moncton Center
11:18AM 42.9500 -61.5500 270° West 390 449 40,000  Level Moncton Center
11:19AM 42.9333 -61.7000 261° West 380 437 40,000  Level Moncton Center
11:20AM 42.9333 -61.8500 270° West 380 437 40,000  Level Moncton Center
11:21AM 42.9167 -61.9833 260° West 380 437 40,000  Level Moncton Center
11:22AM 42.9333 -62.1333 279° West 380 437 40,000  Level Moncton Center
11:23AM 42.9167 -62.2833 261° West 390 449 40,000  Level Moncton Center
11:24AM 42.9167 -62.4167 270° West 380 437 40,000  Level Moncton Center
11:25AM 42.9000 -62.5667 261° West 390 449 40,000  Level Moncton Center
11:26AM 42.8833 -62.7167 261° West 390 449 40,000  Level Moncton Center
11:27AM 42.8833 -62.8667 270° West 390 449 40,000  Level Moncton Center
11:28AM 42.8833 -63.0000 270° West 390 449 40,000  Level Moncton Center
11:29AM 42.8833 -63.1667 270° West 390 449 40,000  Level Moncton Center
11:30AM 42.8667 -63.3333 262° West 390 449 40,000  Level Moncton Center
11:31AM 42.8667 -63.4667 270° West 390 449 40,000  Level Moncton Center
11:36AM 42.8260 -64.2970 270° West 394 453 40,000  Level FlightAware
11:38AM 42.8160 -64.4750 266° West 391 450 40,000  Level FlightAware
11:38AM 42.8110 -64.5600 265° West 389 448 40,000  Level FlightAware
11:39AM 42.8030 -64.6830 265° West 388 447 40,000  Level FlightAware
11:40AM 42.7940 -64.8150 265° West 385 443 40,000  Level FlightAware
11:41AM 42.7890 -64.9020 266° West 383 441 40,000  Level FlightAware
11:41AM 42.7810 -65.0260 265° West 382 440 40,000  Level FlightAware
11:42AM 42.7730 -65.1380 264° West 378 435 40,000  Level FlightAware
11:43AM 42.7670 -65.2390 265° West 378 435 40,000  Level FlightAware
11:44AM 42.7590 -65.3500 264° West 379 436 40,000  Level FlightAware
11:45AM 42.7480 -65.5070 265° West 381 438 40,000  Level FlightAware
11:45AM 42.7410 -65.6040 264° West 383 441 40,000  Level FlightAware
11:46AM 42.7330 -65.7170 265° West 386 444 40,000  Level FlightAware
11:47AM 42.7230 -65.8560 264° West 388 447 40,000  Level FlightAware
11:48AM 42.7160 -65.9530 264° West 389 448 40,000  Level FlightAware
11:49AM 42.7080 -66.0650 264° West 388 447 40,000  Level FlightAware
11:49AM 42.7000 -66.1620 264° West 389 448 40,000  Level FlightAware
11:50AM 42.6920 -66.2730 264° West 389 448 40,000  Level FlightAware
11:51AM 42.6840 -66.3690 264° West 389 448 40,000  Level FlightAware
11:51AM 42.6770 -66.4680 265° West 389 448 40,000  Level FlightAware
11:52AM 42.6680 -66.5730 263° West 392 451 40,000  Level FlightAware
11:53AM 42.6610 -66.6710 264° West 393 452 40,000  Level FlightAware
11:53AM 42.6540 -66.7550 264° West 395 455 40,000  Level FlightAware
11:54AM 42.6450 -66.8670 264° West 394 453 40,000  Level FlightAware
11:55AM 42.6340 -67.0010 264° West 394 453 40,000  Level FlightAware
11:56AM 42.6270 -67.0850 264° West 394 453 40,000  Level FlightAware
11:56AM 42.6210 -67.1690 264° West 394 453 40,000  Level FlightAware
11:57AM 42.6140 -67.2530 264° West 394 453 40,000  Level FlightAware
11:58AM 42.6060 -67.3570 264° West 394 453 40,000  Level FlightAware
11:58AM 42.5590 -67.4740 241° Southwest 40,000  Level FlightAware
11:59AM 42.5510 -67.5240 258° West 398 458 40,000  Level FlightAware
11:59AM 42.5370 -67.6090 257° West 398 458 40,000  Level FlightAware
12:00PM 42.5180 -67.7290 258° West 397 457 40,000  Level FlightAware
12:01PM 42.5040 -67.8100 257° West 397 457 40,000  Level FlightAware
12:01PM 42.4840 -67.9370 258° West 394 453 40,000  Level FlightAware
12:02PM 42.4680 -68.0340 257° West 393 452 40,000  Level FlightAware
12:03PM 42.4510 -68.1350 257° West 393 452 40,000  Level FlightAware
12:04PM 42.4340 -68.2360 257° West 394 453 40,000  Level FlightAware
12:04PM 42.4170 -68.3360 257° West 394 453 40,000  Level FlightAware
12:05PM 42.4000 -68.4400 258° West 395 455 40,000  Level FlightAware
12:06PM 42.3830 -68.5390 257° West 395 455 40,000  Level FlightAware
12:06PM 42.3660 -68.6380 257° West 395 455 40,000  Level FlightAware
12:07PM 42.3480 -68.7410 257° West 395 455 40,000  Level FlightAware
12:08PM 42.3310 -68.8420 257° West 397 457 40,000  Level FlightAware
12:08PM 42.3120 -68.9490 257° West 397 457 40,000  Level FlightAware
12:09PM 42.2950 -69.0450 257° West 397 457 40,000  Level FlightAware
12:10PM 42.2760 -69.1570 257° West 398 458 40,000  Level FlightAware
12:11PM 42.2590 -69.2540 257° West 398 458 40,000  Level FlightAware
12:11PM 42.2410 -69.3510 256° West 397 457 40,000  Level FlightAware
12:12PM 42.2220 -69.4600 257° West 397 457 40,000  Level FlightAware
12:13PM 42.2040 -69.5570 256° West 397 457 40,000  Level FlightAware
12:13PM 42.1870 -69.6530 257° West 397 457 40,000  Level FlightAware
12:14PM 42.1670 -69.7610 256° West 400 460 40,000  Level FlightAware
12:15PM 42.1490 -69.8590 256° West 401 461 40,000  Level FlightAware
12:15PM 42.1300 -69.9670 257° West 402 463 40,000  Level FlightAware
12:16PM 42.1110 -70.0670 256° West 403 464 40,000  Level FlightAware
12:17PM 42.0910 -70.1740 256° West 407 468 40,000  Level FlightAware
12:18PM 42.0730 -70.2740 256° West 407 468 40,000  Level FlightAware
12:18PM 42.0480 -70.3810 253° West 410 472 40,000  Level FlightAware
12:19PM 42.0080 -70.4650 237° Southwest 417 480 40,000  Level FlightAware
12:20PM 41.9660 -70.5510 237° Southwest 417 480 40,000  Level FlightAware
12:20PM 41.9160 -70.6530 237° Southwest 416 479 40,000  Level FlightAware
12:21PM 41.8760 -70.7340 236° Southwest 416 479 40,000  Level FlightAware
12:22PM 41.8400 -70.8070 237° Southwest 416 479 40,000  Level FlightAware
12:23PM 41.7670 -70.9550 237° Southwest 415 478 40,000 -60 Level FlightAware
12:23PM 41.7280 -71.0360 237° Southwest 416 479 39,900 -1,080 Descending FlightAware
12:24PM 41.6870 -71.1170 236° Southwest 422 486 38,700 -2,160 Descending FlightAware
12:25PM 41.6340 -71.2230 236° Southwest 417 480 36,900 -2,160 Descending FlightAware
12:25PM 41.5910 -71.3110 237° Southwest 411 473 35,500 -2,520 Descending FlightAware
12:26PM 41.5450 -71.4030 236° Southwest 414 476 33,400 -2,880 Descending FlightAware
12:27PM 41.5050 -71.4820 236° Southwest 421 484 31,500 -2,880 Descending FlightAware
12:27PM 41.4620 -71.5680 236° Southwest 423 487 29,800 -2,400 Descending FlightAware
12:28PM 41.4110 -71.6690 236° Southwest 414 476 28,100 -2,160 Descending FlightAware
12:29PM 41.3690 -71.7520 236° Southwest 410 472 26,800 -2,100 Descending FlightAware
12:30PM 41.3210 -71.8470 236° Southwest 403 464 25,200 -1,920 Descending FlightAware
12:30PM 41.2680 -71.9300 230° Southwest 405 466 24,000 -1,080 Descending FlightAware
12:31PM 41.2170 -71.9940 223° Southwest 414 476 23,800 -2,040 Descending FlightAware
12:32PM 41.1600 -72.0570 220° Southwest 418 481 21,500 -1,740 Descending FlightAware
12:32PM 41.1010 -72.1230 220° Southwest 418 481 21,500 -1,740 Level FlightAware
12:33PM 41.0690 -72.2460 251° West 375 432 18,800 -2,640 Descending FlightAware
12:34PM 41.0530 -72.3100 252° West 369 425 18,000 -1,800 Descending FlightAware
12:35PM 41.0230 -72.4280 251° West 366 421 16,300 -1,740 Descending FlightAware
12:36PM 40.9960 -72.5370 252° West 358 412 14,900 -1,560 Descending FlightAware
12:36PM 40.9750 -72.6200 251° West 345 397 13,900 -1,500 Descending FlightAware
12:37PM 40.9550 -72.7010 252° West 334 384 12,900 -1,200 Descending FlightAware
12:38PM 40.9340 -72.7800 251° West 303 349 12,200 -1,020 Descending FlightAware
12:38PM 40.9220 -72.8050 238° Southwest 295 339 11,900 -720 Descending FlightAware
12:38PM 40.9130 -72.8150 220° Southwest 292 336 11,900 -1,020 Level FlightAware
12:39PM 40.8640 -72.8610 215° Southwest 279 321 11,000 -1,380 Descending FlightAware
12:39PM 40.8210 -72.9030 216° Southwest 278 320 10,000 -1,560 Descending FlightAware
12:40PM 40.8040 -72.9190 215° Southwest 280 322 9,600 -1,620 Descending FlightAware
12:40PM 40.7740 -72.9480 216° Southwest 279 321 8,800 -1,020 Descending FlightAware
12:41PM 40.7470 -72.9740 216° Southwest 278 320 8,700 -240 Descending FlightAware
12:41PM 40.7150 -73.0070 218° Southwest 280 322 8,600 -660 Descending FlightAware
12:42PM 40.6960 -73.0380 231° Southwest 270 311 8,100 -1,080 Descending FlightAware
12:42PM 40.6840 -73.0590 233° Southwest 270 311 7,900 -1,080 Descending FlightAware
12:42PM 40.6620 -73.0980 233° Southwest 267 307 7,300 -1,140 Descending FlightAware
12:43PM 40.6440 -73.1290 233° Southwest 255 293 6,900 -1,200 Descending FlightAware
12:43PM 40.6230 -73.1660 233° Southwest 255 293 6,200 -1,500 Descending FlightAware
12:44PM 40.6030 -73.2010 233° Southwest 267 307 5,400 -1,560 Descending FlightAware
12:44PM 40.5790 -73.2420 232° Southwest 265 305 4,800 -1,560 Descending FlightAware
12:45PM 40.5550 -73.2810 231° Southwest 270 311 4,000 -1,380 Descending FlightAware
12:45PM 40.5430 -73.3020 233° Southwest 264 304 3,800 -1,200 Descending FlightAware
12:45PM 40.5250 -73.3330 233° Southwest 262 302 3,200 -1,140 Descending FlightAware
12:46PM 40.5050 -73.3700 235° Southwest 258 297 2,800 -600 Descending FlightAware
12:46PM 40.4860 -73.4080 237° Southwest 256 295 2,600 -600 Descending FlightAware
12:46PM 40.4820 -73.4260 254° West 254 292 2,400 -1,200 Descending FlightAware
12:47PM 40.4730 -73.4680 254° West 256 295 1,800 -960 Descending FlightAware
12:47PM 40.4670 -73.4940 253° West 257 296 1,700 -180 Descending FlightAware
12:48PM 40.4600 -73.5270 254° West 258 297 1,700  Level FlightAware
12:48PM 40.4510 -73.5660 253° West 258 297 1,700  Level FlightAware
12:49PM 40.4390 -73.6220 254° West 258 297 1,700  Level FlightAware
12:49PM 40.4330 -73.6500 254° West 257 296 1,700  Level FlightAware
12:50PM 40.4220 -73.7010 254° West 231 266 1,700  Level FlightAware
12:50PM 40.4150 -73.7290 252° West 220 253 1,700  Level FlightAware
12:50PM 40.4060 -73.7710 254° West 207 238 1,700  Level FlightAware
12:51PM 40.3980 -73.8040 252° West 186 214 1,700  Level FlightAware
12:51PM 40.3980 -73.8150 270° West 180 207 1,700  Level FlightAware
12:51PM 40.4020 -73.8280 292° West 176 203 1,700  Level FlightAware
12:52PM 40.4160 -73.8560 303° West 179 206 1,700  Level FlightAware
12:52PM 40.4280 -73.8780 306° West 173 199 1,700  Level FlightAware
12:53PM 40.4390 -73.8880 325° Northwest 172 198 1,700  Level FlightAware
12:53PM 40.4620 -73.8900 356° North 174 200 1,700  Level FlightAware
12:54PM 40.4850 -73.8790 20° North 179 206 1,700  Level FlightAware
12:54PM 40.4910 -73.8750 27° Northeast 177 204 1,700  Level FlightAware
12:54PM 40.5130 -73.8570 32° Northeast 180 207 1,700  Level FlightAware
12:55PM 40.5320 -73.8430 29° Northeast 179 206 1,700 -360 Level FlightAware
12:55PM 40.5540 -73.8260 30° Northeast 175 201 1,400 -720 Descending FlightAware
12:56PM 40.5740 -73.8110 30° Northeast 153 176 1,000 -900 Descending FlightAware
12:56PM 40.5880 -73.8000 31° Northeast 135 155 600 -780 Descending FlightAware
12:57PM 40.6030 -73.7880 31° Northeast 128 147 300 -600 Descending FlightAware
12:57PM 40.6160 -73.7780 30° Northeast 128 147 -720 Descending FlightAware